Time;durP1;ratioP1;P1;durP2;ratioP2;P2;SDS_P1;SDS_P2;PMS_P1;PMS_P2;Temp;Humidity;BMP_temperature;BMP_pressure;BME280_temperature;BME280_humidity;BME280_pressure;Samples;Min_cycle;Max_cycle;Signal;HPM_P1;HPM_P2
2020/12/04 00:01:14;;;;;;;17.83;12.60;;;3.70;99.90;;;;;;5034557;28;20206;-58
2020/12/04 00:03:40;;;;;;;15.23;11.30;;;3.80;99.90;;;;;;5034068;28;20690;-58
2020/12/04 00:06:06;;;;;;;20.37;12.77;;;3.80;99.90;;;;;;5034568;28;20240;-58
2020/12/04 00:08:32;;;;;;;21.13;15.97;;;3.70;99.90;;;;;;5034605;28;20210;-59
2020/12/04 00:10:59;;;;;;;15.57;11.87;;;3.70;99.90;;;;;;5034460;28;20217;-57
2020/12/04 00:13:25;;;;;;;17.30;12.53;;;3.70;99.90;;;;;;5033937;28;20214;-58
2020/12/04 00:15:51;;;;;;;17.33;11.93;;;3.60;99.90;;;;;;5034082;28;20233;-59
2020/12/04 00:18:18;;;;;;;16.30;11.57;;;3.60;99.90;;;;;;5033821;28;20210;-59
2020/12/04 00:20:44;;;;;;;17.80;11.20;;;3.50;99.90;;;;;;5034200;28;20206;-59
2020/12/04 00:23:10;;;;;;;18.97;12.97;;;3.40;99.90;;;;;;5034349;28;20203;-59
2020/12/04 00:25:36;;;;;;;17.20;12.13;;;3.30;99.90;;;;;;5033747;28;20230;-59
2020/12/04 00:28:03;;;;;;;15.60;11.43;;;3.20;99.90;;;;;;5033921;28;20209;-59
2020/12/04 00:30:29;;;;;;;16.27;11.27;;;3.20;99.90;;;;;;5034064;28;20214;-58
2020/12/04 00:32:55;;;;;;;17.20;11.17;;;3.20;99.90;;;;;;5034331;28;20206;-59
2020/12/04 00:35:21;;;;;;;19.00;12.23;;;3.30;99.90;;;;;;5033807;28;20234;-58
2020/12/04 00:37:48;;;;;;;16.13;11.80;;;3.30;99.90;;;;;;5033859;28;20217;-59
2020/12/04 00:40:14;;;;;;;16.27;12.10;;;3.30;99.90;;;;;;5034060;28;20213;-58
2020/12/04 00:42:44;;;;;;;17.03;11.97;;;3.40;99.90;;;;;;5033993;28;20202;-60
2020/12/04 00:45:11;;;;;;;15.17;11.33;;;3.40;99.90;;;;;;5033315;28;20280;-59
2020/12/04 00:47:38;;;;;;;16.43;11.17;;;3.50;99.90;;;;;;5033857;28;20241;-59
2020/12/04 00:50:04;;;;;;;16.03;10.63;;;3.50;99.90;;;;;;5033649;28;20206;-59
2020/12/04 00:52:30;;;;;;;14.90;10.53;;;3.50;99.90;;;;;;5034092;28;20206;-59
2020/12/04 00:54:56;;;;;;;15.63;10.87;;;3.60;99.90;;;;;;5033167;28;20782;-59
2020/12/04 00:57:22;;;;;;;17.07;11.23;;;3.90;99.90;;;;;;5033792;28;20233;-59
2020/12/04 00:59:49;;;;;;;15.17;10.93;;;4.00;99.90;;;;;;5033233;28;20217;-59
2020/12/04 01:02:16;;;;;;;15.73;11.10;;;4.00;99.90;;;;;;5033912;28;20210;-60
2020/12/04 01:04:42;;;;;;;16.70;12.27;;;4.20;99.90;;;;;;5033459;28;20561;-64
2020/12/04 01:07:08;;;;;;;18.97;12.83;;;4.40;99.90;;;;;;5034064;28;20305;-59
2020/12/04 01:09:35;;;;;;;16.90;11.47;;;4.60;99.90;;;;;;5033442;28;20214;-59
2020/12/04 01:12:01;;;;;;;13.77;9.83;;;4.60;99.90;;;;;;5033780;28;20237;-59
2020/12/04 01:14:28;;;;;;;15.93;10.73;;;4.40;99.90;;;;;;5033279;28;20218;-59
2020/12/04 01:16:54;;;;;;;17.13;11.23;;;4.20;99.90;;;;;;5033981;28;20206;-60
2020/12/04 01:19:21;;;;;;;15.70;10.73;;;4.20;99.90;;;;;;5033618;28;20209;-59
2020/12/04 01:21:48;;;;;;;12.90;9.67;;;4.30;99.90;;;;;;5033639;28;20210;-59
2020/12/04 01:24:14;;;;;;;14.07;10.30;;;4.20;99.90;;;;;;5033135;28;20210;-61
2020/12/04 01:26:40;;;;;;;14.80;10.80;;;4.10;99.90;;;;;;5033720;28;20597;-59
2020/12/04 01:29:06;;;;;;;15.30;11.23;;;4.10;99.90;;;;;;5034322;28;20305;-59
2020/12/04 01:31:33;;;;;;;14.33;10.30;;;4.30;99.90;;;;;;5034343;28;20206;-59
2020/12/04 01:34:00;;;;;;;15.17;11.00;;;4.20;99.90;;;;;;5033642;28;20617;-59
2020/12/04 01:36:27;;;;;;;14.67;10.90;;;4.20;99.90;;;;;;5033919;28;20230;-59
2020/12/04 01:38:53;;;;;;;17.90;11.43;;;4.20;99.90;;;;;;5033347;28;20206;-60
2020/12/04 01:41:19;;;;;;;14.80;11.03;;;4.30;99.90;;;;;;5033001;28;20209;-59
2020/12/04 01:43:45;;;;;;;14.07;10.20;;;4.40;99.90;;;;;;5032526;28;20229;-59
2020/12/04 01:46:13;;;;;;;15.43;10.90;;;4.60;99.90;;;;;;5032724;28;20234;-59
2020/12/04 01:48:40;;;;;;;14.53;10.20;;;4.70;99.90;;;;;;5032726;28;20210;-60
2020/12/04 01:51:06;;;;;;;14.83;10.67;;;4.80;99.90;;;;;;5032756;28;20207;-59
2020/12/04 01:53:33;;;;;;;14.40;10.00;;;4.70;99.90;;;;;;5032318;28;20206;-59
2020/12/04 01:56:01;;;;;;;15.17;10.67;;;4.50;99.90;;;;;;5032138;28;20246;-59
2020/12/04 01:58:27;;;;;;;15.53;10.47;;;4.20;99.90;;;;;;5032276;28;20206;-59
2020/12/04 02:00:53;;;;;;;13.40;9.60;;;4.20;99.90;;;;;;5032563;28;20214;-59
2020/12/04 02:03:20;;;;;;;13.63;10.50;;;4.10;99.90;;;;;;5032440;28;20256;-59
2020/12/04 02:05:54;;;;;;;15.47;10.20;;;4.10;99.90;;;;;;5031938;28;20669;-60
2020/12/04 02:08:30;;;;;;;14.53;10.27;;;4.00;99.90;;;;;;5031991;28;20202;-59
2020/12/04 02:11:06;;;;;;;15.57;10.43;;;4.00;99.90;;;;;;5032031;28;20309;-60
2020/12/04 02:13:34;;;;;;;14.73;10.47;;;3.90;99.90;;;;;;5032138;28;20213;-60
2020/12/04 02:16:01;;;;;;;12.83;9.80;;;3.90;99.90;;;;;;5031738;28;20604;-59
2020/12/04 02:18:27;;;;;;;15.23;9.93;;;3.90;99.90;;;;;;5031728;28;20206;-59
2020/12/04 02:20:59;;;;;;;14.13;10.40;;;3.90;99.90;;;;;;5031295;28;20217;-60
2020/12/04 02:23:26;;;;;;;13.60;9.63;;;3.80;99.90;;;;;;5031912;28;20217;-60
2020/12/04 02:25:53;;;;;;;16.10;9.90;;;3.90;99.90;;;;;;5031745;28;20608;-60
2020/12/04 02:28:30;;;;;;;15.37;10.30;;;3.80;99.90;;;;;;5031670;28;20272;-59
2020/12/04 02:30:56;;;;;;;14.43;10.50;;;3.80;99.90;;;;;;5032367;28;20205;-60
2020/12/04 02:33:22;;;;;;;15.60;10.60;;;3.80;99.90;;;;;;5032358;28;20213;-60
2020/12/04 02:35:49;;;;;;;14.43;11.07;;;3.90;99.90;;;;;;5032194;28;20233;-60
2020/12/04 02:38:16;;;;;;;13.17;9.73;;;4.00;99.90;;;;;;5032505;28;20258;-60
2020/12/04 02:40:42;;;;;;;15.73;9.73;;;4.00;99.90;;;;;;5032478;28;20686;-60
2020/12/04 02:43:08;;;;;;;15.80;10.43;;;4.00;99.90;;;;;;5032050;28;20206;-60
2020/12/04 02:45:34;;;;;;;14.83;10.00;;;4.10;99.90;;;;;;5031748;28;20230;-59
2020/12/04 02:48:00;;;;;;;15.20;10.30;;;4.20;99.90;;;;;;5031604;28;20210;-60
2020/12/04 02:50:26;;;;;;;15.93;10.63;;;4.30;99.90;;;;;;5031718;28;20209;-60
2020/12/04 02:52:52;;;;;;;14.90;10.60;;;4.40;99.90;;;;;;5031778;28;20674;-60
2020/12/04 02:55:19;;;;;;;15.33;10.07;;;4.40;99.90;;;;;;5031658;28;20237;-60
2020/12/04 02:57:46;;;;;;;16.30;9.97;;;4.40;99.90;;;;;;5031564;28;20248;-60
2020/12/04 03:00:14;;;;;;;14.33;9.53;;;4.20;99.90;;;;;;5031819;28;20209;-60
2020/12/04 03:02:40;;;;;;;11.70;8.80;;;4.00;99.90;;;;;;5031333;28;20206;-60
2020/12/04 03:05:06;;;;;;;12.93;9.37;;;3.80;99.90;;;;;;5031066;28;20229;-60
2020/12/04 03:07:32;;;;;;;13.87;9.53;;;3.80;99.90;;;;;;5031333;28;20225;-60
2020/12/04 03:09:58;;;;;;;13.77;9.77;;;3.80;99.90;;;;;;5030941;28;20259;-60
2020/12/04 03:12:25;;;;;;;12.23;9.17;;;3.80;99.90;;;;;;5031094;28;20229;-60
2020/12/04 03:14:52;;;;;;;14.10;9.43;;;3.80;99.90;;;;;;5030765;28;20226;-60
2020/12/04 03:17:18;;;;;;;12.03;8.50;;;3.70;99.90;;;;;;5030801;28;20203;-59
2020/12/04 03:19:44;;;;;;;13.13;9.00;;;3.60;99.90;;;;;;5030984;28;20218;-60
2020/12/04 03:22:10;;;;;;;11.67;9.07;;;3.60;99.90;;;;;;5031138;28;20210;-60
2020/12/04 03:24:36;;;;;;;13.80;9.63;;;3.70;99.90;;;;;;5030591;28;20206;-60
2020/12/04 03:27:02;;;;;;;14.47;9.13;;;3.80;99.90;;;;;;5030759;28;20230;-60
2020/12/04 03:29:29;;;;;;;12.97;8.77;;;3.90;99.90;;;;;;5030435;28;20206;-60
2020/12/04 03:31:56;;;;;;;12.70;9.00;;;3.90;99.90;;;;;;5029788;28;20233;-60
2020/12/04 03:34:22;;;;;;;12.47;9.17;;;4.00;99.90;;;;;;5030593;28;20210;-60
2020/12/04 03:36:48;;;;;;;11.70;8.83;;;4.00;99.90;;;;;;5030688;28;20226;-60
2020/12/04 03:39:14;;;;;;;12.17;9.00;;;4.10;99.90;;;;;;5030453;28;20202;-60
2020/12/04 03:41:40;;;;;;;11.73;8.77;;;4.20;99.90;;;;;;5030779;28;20593;-59
2020/12/04 03:44:07;;;;;;;12.53;9.10;;;4.30;99.90;;;;;;5030477;28;20210;-59
2020/12/04 03:46:34;;;;;;;11.97;8.87;;;4.20;99.90;;;;;;5030391;28;20226;-59
2020/12/04 03:49:00;;;;;;;11.60;8.00;;;4.10;99.90;;;;;;5030522;28;20217;-59
2020/12/04 03:51:26;;;;;;;11.70;8.03;;;4.30;99.90;;;;;;5030677;28;20212;-59
2020/12/04 03:53:52;;;;;;;11.20;8.20;;;4.40;99.90;;;;;;5030532;28;20202;-59
2020/12/04 03:56:18;;;;;;;11.23;8.17;;;4.60;99.90;;;;;;5030396;28;20226;-59
2020/12/04 03:58:44;;;;;;;13.93;9.10;;;4.70;99.90;;;;;;5030406;28;20814;-59
2020/12/04 04:01:11;;;;;;;11.33;8.33;;;4.90;99.90;;;;;;5030403;28;20357;-59
2020/12/04 04:03:38;;;;;;;12.27;9.07;;;5.00;99.90;;;;;;5030473;28;20216;-59
2020/12/04 04:06:04;;;;;;;11.30;7.90;;;5.10;99.90;;;;;;5030543;28;20229;-59
2020/12/04 04:08:30;;;;;;;10.87;8.50;;;5.30;99.90;;;;;;5030217;28;20202;-59
2020/12/04 04:10:59;;;;;;;11.00;8.13;;;5.40;99.90;;;;;;5030368;28;20210;-60
2020/12/04 04:13:25;;;;;;;11.87;8.47;;;5.50;99.90;;;;;;5030006;28;20210;-59
2020/12/04 04:15:51;;;;;;;10.83;7.97;;;5.70;99.90;;;;;;5030302;28;20233;-60
2020/12/04 04:18:18;;;;;;;9.90;7.73;;;5.80;99.90;;;;;;5030035;28;20256;-61
2020/12/04 04:20:46;;;;;;;14.40;9.20;;;5.90;99.90;;;;;;5030652;28;20210;-61
2020/12/04 04:23:12;;;;;;;13.03;8.83;;;6.00;99.80;;;;;;5030590;28;20241;-60
2020/12/04 04:25:38;;;;;;;13.30;8.57;;;6.00;99.80;;;;;;5030395;28;20261;-60
2020/12/04 04:28:10;;;;;;;14.47;8.60;;;6.10;99.80;;;;;;5030295;28;20645;-61
2020/12/04 04:30:36;;;;;;;14.03;8.57;;;6.20;99.80;;;;;;5031200;28;20297;-61
2020/12/04 04:33:02;;;;;;;11.20;8.57;;;6.10;99.40;;;;;;5030441;28;20217;-60
2020/12/04 04:35:28;;;;;;;12.07;8.10;;;6.10;99.50;;;;;;5029886;28;20230;-60
2020/12/04 04:37:55;;;;;;;12.43;8.70;;;6.00;99.50;;;;;;5029832;28;20202;-61
2020/12/04 04:40:21;;;;;;;11.63;8.80;;;5.80;99.70;;;;;;5030173;28;20260;-60
2020/12/04 04:42:47;;;;;;;11.37;8.67;;;5.60;99.90;;;;;;5029876;28;20216;-60
2020/12/04 04:45:16;;;;;;;13.13;9.57;;;5.40;99.90;;;;;;5033184;28;20283;-60
2020/12/04 04:47:44;;;;;;;13.27;8.93;;;5.30;99.90;;;;;;5033968;28;20257;-63
2020/12/04 04:50:10;;;;;;;12.97;8.60;;;5.30;99.90;;;;;;5033684;28;20313;-61
2020/12/04 04:52:37;;;;;;;11.00;8.13;;;5.40;99.90;;;;;;5034131;28;20689;-59
2020/12/04 04:55:05;;;;;;;11.30;8.33;;;5.40;99.90;;;;;;5033724;28;20241;-59
2020/12/04 04:57:31;;;;;;;10.73;8.07;;;5.50;99.90;;;;;;5033569;28;20651;-59
2020/12/04 04:59:57;;;;;;;11.10;7.63;;;5.40;99.90;;;;;;5033544;28;20217;-58
2020/12/04 05:02:24;;;;;;;12.13;7.70;;;5.20;99.90;;;;;;5033497;28;20206;-59
2020/12/04 05:04:52;;;;;;;12.03;8.57;;;5.20;99.90;;;;;;5033362;28;20265;-60
2020/12/04 05:07:25;;;;;;;10.83;7.80;;;5.30;99.90;;;;;;5034173;28;20238;-60
2020/12/04 05:09:52;;;;;;;11.97;8.87;;;5.50;99.90;;;;;;5033255;28;20216;-60
2020/12/04 05:12:19;;;;;;;11.53;8.07;;;5.70;99.90;;;;;;5033832;28;20234;-60
2020/12/04 05:14:45;;;;;;;12.30;8.40;;;5.90;99.80;;;;;;5033378;28;20231;-60
2020/12/04 05:17:12;;;;;;;11.40;8.20;;;5.90;99.70;;;;;;5033909;28;20215;-60
2020/12/04 05:19:41;;;;;;;11.93;8.37;;;5.60;99.90;;;;;;5033593;28;20590;-59
2020/12/04 05:22:09;;;;;;;12.53;8.93;;;5.30;99.90;;;;;;5033494;28;20592;-59
2020/12/04 05:24:36;;;;;;;11.20;8.37;;;5.20;99.90;;;;;;5033121;28;20202;-59
2020/12/04 05:27:23;;;;;;;11.47;7.60;;;5.40;99.90;;;;;;5033279;28;20234;-60
2020/12/04 05:29:49;;;;;;;10.03;7.33;;;5.50;99.90;;;;;;5033669;28;20220;-60
2020/12/04 05:32:15;;;;;;;10.97;7.60;;;5.70;99.80;;;;;;5034349;28;20210;-59
2020/12/04 05:34:41;;;;;;;10.20;7.43;;;5.80;99.50;;;;;;5034140;28;20206;-59
2020/12/04 05:37:10;;;;;;;10.70;8.00;;;5.70;99.50;;;;;;5034902;28;20221;-59
2020/12/04 05:39:44;;;;;;;9.30;7.33;;;5.50;99.90;;;;;;5033726;28;20206;-60
2020/12/04 05:42:11;;;;;;;11.53;8.30;;;5.40;99.90;;;;;;5033204;28;20265;-60
2020/12/04 05:44:54;;;;;;;13.00;7.70;;;5.40;99.90;;;;;;5032905;28;20209;-60
2020/12/04 05:47:20;;;;;;;9.77;7.20;;;5.40;99.90;;;;;;5032719;28;20260;-60
2020/12/04 05:49:47;;;;;;;11.83;7.73;;;5.30;99.90;;;;;;5032461;28;20206;-60
2020/12/04 05:52:14;;;;;;;12.57;7.43;;;5.20;99.90;;;;;;5032745;28;20210;-60
2020/12/04 05:54:42;;;;;;;12.50;8.63;;;5.20;99.90;;;;;;5031411;28;20214;-60
2020/12/04 05:57:10;;;;;;;9.83;7.40;;;5.20;99.90;;;;;;5032365;28;20207;-60
2020/12/04 05:59:36;;;;;;;9.90;7.60;;;5.10;99.90;;;;;;5032007;28;20206;-60
2020/12/04 06:02:03;;;;;;;9.47;7.43;;;4.90;99.90;;;;;;5032005;28;20344;-60
2020/12/04 06:04:30;;;;;;;9.73;7.57;;;4.70;99.90;;;;;;5032279;28;20206;-59
2020/12/04 06:06:57;;;;;;;10.80;7.70;;;4.50;99.90;;;;;;5031952;28;20261;-59
2020/12/04 06:09:24;;;;;;;11.20;7.70;;;4.70;99.90;;;;;;5032256;28;20211;-59
2020/12/04 06:11:50;;;;;;;9.43;7.40;;;4.90;99.90;;;;;;5032176;28;20206;-60
2020/12/04 06:14:17;;;;;;;11.37;7.80;;;5.00;99.90;;;;;;5031901;28;20256;-60
2020/12/04 06:16:44;;;;;;;10.53;7.30;;;5.10;99.90;;;;;;5032086;28;20309;-59
2020/12/04 06:19:29;;;;;;;11.63;7.63;;;5.10;99.90;;;;;;5031758;28;20202;-60
2020/12/04 06:22:04;;;;;;;11.87;7.50;;;5.10;99.90;;;;;;5030660;28;20210;-59
2020/12/04 06:24:31;;;;;;;10.43;7.00;;;5.00;99.90;;;;;;5031717;28;20210;-59
2020/12/04 06:26:57;;;;;;;14.30;8.20;;;4.80;99.90;;;;;;5031828;28;20237;-59
2020/12/04 06:29:23;;;;;;;14.53;9.70;;;4.80;99.90;;;;;;5031515;28;20286;-59
2020/12/04 06:31:49;;;;;;;11.73;8.47;;;4.70;99.90;;;;;;5031847;28;20217;-59
2020/12/04 06:34:18;;;;;;;10.80;7.53;;;4.90;99.90;;;;;;5031654;28;20214;-59
2020/12/04 06:36:46;;;;;;;10.73;6.90;;;4.90;99.90;;;;;;5031670;28;20230;-59
2020/12/04 06:39:29;;;;;;;10.97;7.53;;;4.90;99.90;;;;;;5031605;28;20212;-59
2020/12/04 06:41:56;;;;;;;12.70;9.00;;;5.00;99.90;;;;;;5032188;28;20620;-58
2020/12/04 06:44:24;;;;;;;11.30;7.53;;;4.90;99.90;;;;;;5032205;28;20604;-59
2020/12/04 06:46:51;;;;;;;11.97;7.40;;;4.70;99.90;;;;;;5031495;28;20226;-59
2020/12/04 06:49:23;;;;;;;12.27;7.10;;;4.50;99.90;;;;;;5031494;28;20206;-58
2020/12/04 06:51:59;;;;;;;10.53;7.50;;;4.40;99.90;;;;;;5031456;28;20320;-58
2020/12/04 06:54:26;;;;;;;9.30;6.73;;;4.40;99.90;;;;;;5031103;28;20260;-58
2020/12/04 06:56:52;;;;;;;9.77;6.83;;;4.30;99.90;;;;;;5031086;28;20222;-59
2020/12/04 06:59:27;;;;;;;11.57;7.23;;;4.30;99.90;;;;;;5030854;28;20686;-59
2020/12/04 07:01:59;;;;;;;9.20;6.20;;;4.30;99.90;;;;;;5031312;28;20209;-58
2020/12/04 07:04:27;;;;;;;11.90;7.93;;;4.30;99.90;;;;;;5030919;28;20229;-58
2020/12/04 07:07:00;;;;;;;11.00;6.93;;;4.30;99.90;;;;;;5031507;28;20686;-58
2020/12/04 07:09:27;;;;;;;13.20;8.07;;;4.20;99.90;;;;;;5031270;28;20695;-59
2020/12/04 07:11:55;;;;;;;10.73;7.17;;;4.20;99.90;;;;;;5031291;28;20209;-58
2020/12/04 07:14:23;;;;;;;12.27;8.03;;;4.30;99.90;;;;;;5030801;28;20685;-59
2020/12/04 07:16:50;;;;;;;10.80;7.70;;;4.30;99.90;;;;;;5030986;28;20202;-59
2020/12/04 07:19:16;;;;;;;10.43;7.17;;;4.40;99.90;;;;;;5030902;28;20301;-58
2020/12/04 07:21:42;;;;;;;12.60;8.87;;;4.40;99.90;;;;;;5031280;28;20631;-59
2020/12/04 07:24:09;;;;;;;10.63;7.77;;;4.40;99.90;;;;;;5030871;28;20210;-59
2020/12/04 07:26:36;;;;;;;10.60;6.70;;;4.50;99.90;;;;;;5030680;28;20276;-59
2020/12/04 07:29:02;;;;;;;10.73;8.13;;;4.40;99.90;;;;;;5030365;28;20213;-59
2020/12/04 07:31:29;;;;;;;10.90;7.73;;;4.50;99.90;;;;;;5030339;28;20210;-59
2020/12/04 07:33:57;;;;;;;11.10;7.47;;;4.60;99.90;;;;;;5030473;28;20585;-58
2020/12/04 07:36:24;;;;;;;9.77;7.37;;;4.80;99.90;;;;;;5030592;28;20222;-58
2020/12/04 07:38:52;;;;;;;10.97;7.33;;;5.00;99.90;;;;;;5030269;28;20218;-58
2020/12/04 07:41:31;;;;;;;10.50;7.67;;;5.10;99.90;;;;;;5030571;28;20348;-58
2020/12/04 07:44:05;;;;;;;10.07;7.70;;;5.30;99.90;;;;;;5030327;28;20308;-58
2020/12/04 07:46:32;;;;;;;11.93;8.60;;;5.40;99.90;;;;;;5030386;28;20317;-59
2020/12/04 07:49:05;;;;;;;9.67;7.27;;;5.40;99.90;;;;;;5030615;28;20227;-58
2020/12/04 07:51:33;;;;;;;11.77;7.90;;;5.60;99.80;;;;;;5030594;28;20216;-60
2020/12/04 07:53:59;;;;;;;10.37;7.67;;;5.70;99.70;;;;;;5030425;28;20210;-59
2020/12/04 07:56:27;;;;;;;10.40;7.13;;;5.60;99.60;;;;;;5031021;28;20296;-59
2020/12/04 07:58:59;;;;;;;11.07;7.90;;;5.60;99.60;;;;;;5031153;28;20210;-59
2020/12/04 08:01:27;;;;;;;11.27;7.87;;;5.60;99.60;;;;;;5031387;28;20259;-61
2020/12/04 08:03:54;;;;;;;9.50;7.00;;;5.60;99.60;;;;;;5031119;28;20203;-60
2020/12/04 08:06:27;;;;;;;9.73;7.00;;;5.60;99.80;;;;;;5030860;28;20226;-59
2020/12/04 08:09:12;;;;;;;10.83;7.90;;;5.60;99.90;;;;;;5030629;28;20238;-61
2020/12/04 08:11:48;;;;;;;11.57;7.50;;;5.60;99.90;;;;;;5030733;28;20674;-61
2020/12/04 08:14:21;;;;;;;11.83;8.53;;;5.80;99.80;;;;;;5031085;28;20240;-62
2020/12/04 08:16:48;;;;;;;14.40;8.30;;;5.90;99.80;;;;;;5030872;28;20292;-60
2020/12/04 08:19:15;;;;;;;9.97;7.00;;;5.80;99.70;;;;;;5032933;28;20209;-60
2020/12/04 08:22:01;;;;;;;14.37;7.03;;;5.70;99.90;;;;;;5034624;28;20206;-59
2020/12/04 08:24:29;;;;;;;12.70;8.90;;;5.60;99.90;;;;;;5034736;28;20382;-59
2020/12/04 08:27:00;;;;;;;10.90;6.80;;;5.50;99.90;;;;;;5034374;28;20237;-59
2020/12/04 08:29:26;;;;;;;9.47;6.90;;;5.50;99.90;;;;;;5034490;28;20619;-61
2020/12/04 08:32:04;;;;;;;9.27;6.80;;;5.60;99.90;;;;;;5035284;28;20202;-61
2020/12/04 08:34:30;;;;;;;10.63;7.20;;;5.70;99.90;;;;;;5034949;28;20210;-60
2020/12/04 08:37:01;;;;;;;10.37;7.33;;;5.70;99.90;;;;;;5034926;28;20206;-60
2020/12/04 08:39:38;;;;;;;10.67;7.53;;;5.70;99.90;;;;;;5034317;28;20206;-60
2020/12/04 08:42:31;;;;;;;10.33;7.37;;;5.70;99.90;;;;;;5034276;28;20210;-61
2020/12/04 08:45:05;;;;;;;10.17;6.90;;;5.70;99.90;;;;;;5016176;28;20238;-61
2020/12/04 08:47:35;;;;;;;9.57;7.23;;;5.70;99.90;;;;;;5034066;28;20698;-60
2020/12/04 08:50:14;;;;;;;10.27;7.60;;;5.80;99.90;;;;;;5034209;28;20217;-60
2020/12/04 08:52:45;;;;;;;9.20;7.13;;;6.10;99.90;;;;;;5034107;28;20477;-62
2020/12/04 08:55:14;;;;;;;9.67;6.73;;;6.30;99.90;;;;;;5033935;28;20610;-61
2020/12/04 08:57:41;;;;;;;10.23;7.30;;;6.50;99.50;;;;;;5033739;28;20206;-61
2020/12/04 09:00:13;;;;;;;10.00;7.07;;;6.80;98.90;;;;;;5033725;28;20231;-61
2020/12/04 09:02:40;;;;;;;10.10;6.93;;;6.90;98.60;;;;;;5033719;28;20217;-60
2020/12/04 09:05:09;;;;;;;9.43;7.07;;;6.90;98.40;;;;;;5033011;28;20223;-60
2020/12/04 09:07:36;;;;;;;10.67;7.00;;;6.90;98.50;;;;;;5033470;28;20226;-60
2020/12/04 09:10:02;;;;;;;10.30;7.27;;;6.70;98.60;;;;;;5033542;28;20206;-61
2020/12/04 09:12:30;;;;;;;8.93;6.27;;;6.70;98.80;;;;;;5033636;28;20270;-61
2020/12/04 09:14:56;;;;;;;8.60;6.37;;;6.90;98.50;;;;;;5033014;28;20781;-61
2020/12/04 09:17:22;;;;;;;10.03;7.33;;;7.00;98.10;;;;;;5033313;28;20481;-61
2020/12/04 09:19:49;;;;;;;10.47;7.53;;;7.10;98.00;;;;;;5032871;28;20210;-61
2020/12/04 09:22:16;;;;;;;10.73;7.27;;;7.10;98.00;;;;;;5033573;28;20213;-61
2020/12/04 09:24:43;;;;;;;10.57;7.20;;;7.30;97.90;;;;;;5033386;28;20667;-61
2020/12/04 09:27:10;;;;;;;11.57;6.97;;;7.40;97.80;;;;;;5033789;28;20233;-61
2020/12/04 09:29:36;;;;;;;9.83;6.67;;;7.50;97.50;;;;;;5032945;28;20264;-61
2020/12/04 09:32:06;;;;;;;10.53;6.30;;;7.70;97.10;;;;;;5032985;28;20213;-61
2020/12/04 09:34:33;;;;;;;11.33;7.07;;;7.70;97.20;;;;;;5032324;28;20210;-61
2020/12/04 09:37:13;;;;;;;10.27;6.70;;;7.60;97.50;;;;;;5032921;28;20198;-59
2020/12/04 09:39:40;;;;;;;9.67;7.03;;;7.40;97.70;;;;;;5032445;28;20214;-59
2020/12/04 09:42:07;;;;;;;9.27;7.10;;;7.30;97.80;;;;;;5032570;28;20666;-59
2020/12/04 09:44:33;;;;;;;11.10;6.97;;;7.30;98.10;;;;;;5032580;28;20689;-60
2020/12/04 09:46:59;;;;;;;10.23;6.77;;;7.40;98.00;;;;;;5032577;28;20229;-60
2020/12/04 09:49:26;;;;;;;8.57;6.40;;;7.50;97.50;;;;;;5032450;28;20210;-60
2020/12/04 09:51:54;;;;;;;10.00;6.63;;;7.70;97.50;;;;;;5032541;28;20217;-60
2020/12/04 09:54:21;;;;;;;11.60;6.93;;;7.90;97.00;;;;;;5032185;28;20206;-61
2020/12/04 09:56:47;;;;;;;10.37;7.30;;;8.10;96.60;;;;;;5032193;28;20230;-61
2020/12/04 09:59:14;;;;;;;11.97;7.00;;;8.30;96.50;;;;;;5032127;28;20583;-61
2020/12/04 10:01:40;;;;;;;10.23;7.17;;;8.60;95.80;;;;;;5032128;28;20241;-60
2020/12/04 10:04:06;;;;;;;8.33;6.47;;;8.70;95.70;;;;;;5032132;28;20582;-61
2020/12/04 10:06:33;;;;;;;10.40;6.80;;;8.80;95.60;;;;;;5032448;28;20245;-61
2020/12/04 10:08:59;;;;;;;10.87;7.03;;;8.80;95.60;;;;;;5031923;28;20217;-61
2020/12/04 10:11:26;;;;;;;9.07;6.93;;;9.00;95.40;;;;;;5032566;28;20206;-61
2020/12/04 10:13:52;;;;;;;9.53;6.37;;;9.00;94.80;;;;;;5031785;28;20203;-61
2020/12/04 10:16:18;;;;;;;9.37;7.03;;;9.00;95.00;;;;;;5032442;28;20231;-60
2020/12/04 10:18:44;;;;;;;11.90;7.33;;;8.80;95.30;;;;;;5032066;28;20579;-61
2020/12/04 10:21:11;;;;;;;9.20;7.10;;;8.60;95.70;;;;;;5032536;28;20206;-61
2020/12/04 10:23:37;;;;;;;11.83;7.20;;;8.50;96.50;;;;;;5033050;28;20202;-62
2020/12/04 10:26:03;;;;;;;10.67;7.37;;;8.30;96.60;;;;;;5032545;28;20219;-61
2020/12/04 10:28:32;;;;;;;9.73;5.90;;;8.20;96.60;;;;;;5031802;28;20249;-61
2020/12/04 10:30:58;;;;;;;8.00;6.00;;;8.20;96.50;;;;;;5031999;28;20632;-61
2020/12/04 10:33:25;;;;;;;9.60;6.23;;;8.10;96.70;;;;;;5032965;28;20214;-61
2020/12/04 10:35:51;;;;;;;10.17;7.03;;;8.10;96.80;;;;;;5031964;28;20226;-61
2020/12/04 10:38:17;;;;;;;10.80;6.90;;;8.10;96.50;;;;;;5031694;28;20583;-61
2020/12/04 10:40:43;;;;;;;10.53;7.63;;;8.00;96.70;;;;;;5031234;28;20670;-61
2020/12/04 10:43:09;;;;;;;9.53;7.00;;;8.00;96.50;;;;;;5030889;28;20621;-61
2020/12/04 10:45:36;;;;;;;10.83;7.10;;;8.00;96.60;;;;;;5031155;28;20233;-61
2020/12/04 10:48:03;;;;;;;11.77;8.27;;;7.90;96.40;;;;;;5031178;28;20226;-61
2020/12/04 10:50:29;;;;;;;13.47;9.47;;;7.90;96.50;;;;;;5031718;28;20202;-61
2020/12/04 10:52:55;;;;;;;9.50;7.60;;;8.00;96.80;;;;;;5032258;28;20206;-61
2020/12/04 10:55:21;;;;;;;8.70;6.47;;;8.10;96.20;;;;;;5031209;28;20242;-61
2020/12/04 10:57:48;;;;;;;8.97;6.60;;;8.30;95.90;;;;;;5031107;28;20202;-60
2020/12/04 11:00:14;;;;;;;11.00;6.70;;;8.30;95.80;;;;;;5031260;28;20696;-61
2020/12/04 11:02:41;;;;;;;9.63;7.27;;;8.30;95.60;;;;;;5031482;28;20571;-61
2020/12/04 11:05:32;;;;;;;15.23;8.80;;;8.30;95.70;;;;;;5030731;28;20236;-61
2020/12/04 11:07:59;;;;;;;9.07;7.57;;;8.30;96.10;;;;;;5030766;28;20309;-62
2020/12/04 11:10:25;;;;;;;10.13;7.20;;;8.30;96.10;;;;;;5031138;28;20210;-63
2020/12/04 11:12:51;;;;;;;11.87;7.87;;;8.40;96.10;;;;;;5031320;28;20214;-61
2020/12/04 11:15:17;;;;;;;10.50;8.10;;;8.60;95.90;;;;;;5030723;28;20226;-61
2020/12/04 11:17:44;;;;;;;8.87;6.77;;;8.80;95.70;;;;;;5030663;28;20693;-61
2020/12/04 11:20:11;;;;;;;10.77;7.80;;;8.90;94.90;;;;;;5030996;28;20209;-61
2020/12/04 11:22:38;;;;;;;11.03;7.57;;;8.90;95.30;;;;;;5031177;28;20216;-62
2020/12/04 11:25:04;;;;;;;11.80;7.70;;;8.80;96.60;;;;;;5030418;28;20648;-61
2020/12/04 11:27:31;;;;;;;12.10;8.17;;;8.90;97.20;;;;;;5031043;28;20230;-60
2020/12/04 11:29:57;;;;;;;11.80;8.47;;;8.80;97.60;;;;;;5030778;28;20209;-61
2020/12/04 11:32:23;;;;;;;12.57;8.30;;;8.50;97.90;;;;;;5030828;28;20663;-61
2020/12/04 11:34:50;;;;;;;10.40;7.93;;;8.20;98.20;;;;;;5030491;28;20226;-61
2020/12/04 11:37:16;;;;;;;12.93;8.40;;;8.10;98.50;;;;;;5030790;28;20202;-61
2020/12/04 11:39:43;;;;;;;13.27;9.20;;;8.00;98.60;;;;;;5030370;28;20742;-61
2020/12/04 11:42:10;;;;;;;10.17;7.50;;;8.10;98.60;;;;;;5030792;28;20210;-61
2020/12/04 11:44:36;;;;;;;11.00;8.10;;;8.20;98.70;;;;;;5030839;28;20229;-61
2020/12/04 11:47:03;;;;;;;11.73;8.50;;;8.20;98.70;;;;;;5031034;28;20210;-61
2020/12/04 11:49:29;;;;;;;11.83;9.03;;;8.00;99.00;;;;;;5030793;28;20422;-62
2020/12/04 11:51:56;;;;;;;14.20;8.73;;;8.00;99.00;;;;;;5030816;28;20210;-61
2020/12/04 11:54:22;;;;;;;17.37;9.77;;;8.20;98.90;;;;;;5032870;28;20214;-61
2020/12/04 11:56:50;;;;;;;16.57;11.63;;;8.40;98.50;;;;;;5034473;28;20245;-61
2020/12/04 11:59:17;;;;;;;11.70;8.73;;;8.40;98.50;;;;;;5034379;28;20233;-61
2020/12/04 12:01:43;;;;;;;10.83;8.30;;;8.40;98.70;;;;;;5034461;28;20210;-61
2020/12/04 12:04:12;;;;;;;11.10;8.60;;;8.40;98.80;;;;;;5034059;28;20206;-61
2020/12/04 12:06:38;;;;;;;11.97;8.30;;;8.40;98.80;;;;;;5033959;28;20226;-60
2020/12/04 12:09:05;;;;;;;14.90;10.77;;;8.40;98.80;;;;;;5034108;28;20226;-61
2020/12/04 12:11:31;;;;;;;13.60;10.23;;;8.50;98.70;;;;;;5034467;28;20202;-61
2020/12/04 12:13:58;;;;;;;15.00;8.63;;;8.70;98.60;;;;;;5033813;28;20698;-62
2020/12/04 12:16:25;;;;;;;11.07;8.37;;;8.90;98.30;;;;;;5034276;28;20230;-61
2020/12/04 12:18:51;;;;;;;11.40;8.10;;;8.90;97.80;;;;;;5033854;28;20214;-61
2020/12/04 12:21:17;;;;;;;11.53;8.60;;;8.90;98.00;;;;;;5034435;28;20211;-61
2020/12/04 12:23:44;;;;;;;13.20;8.70;;;8.90;98.00;;;;;;5034038;28;20264;-61
2020/12/04 12:26:12;;;;;;;13.77;9.37;;;9.00;97.80;;;;;;5034413;28;20226;-61
2020/12/04 12:28:38;;;;;;;16.63;8.87;;;9.00;97.90;;;;;;5033815;28;20325;-61
2020/12/04 12:31:05;;;;;;;13.50;9.47;;;8.90;98.00;;;;;;5034969;28;20268;-61
2020/12/04 12:33:31;;;;;;;14.43;9.50;;;8.80;98.20;;;;;;5033988;28;20209;-60
2020/12/04 12:35:57;;;;;;;14.73;9.90;;;8.80;98.10;;;;;;5034595;28;20241;-61
2020/12/04 12:38:23;;;;;;;15.10;9.10;;;8.80;98.30;;;;;;5033945;28;20229;-61
2020/12/04 12:40:49;;;;;;;16.10;10.67;;;8.80;98.50;;;;;;5033979;28;20206;-61
2020/12/04 12:43:17;;;;;;;14.80;10.03;;;8.80;98.50;;;;;;5034253;28;20221;-61
2020/12/04 12:45:43;;;;;;;15.20;9.33;;;8.80;98.40;;;;;;5033757;28;20237;-60
2020/12/04 12:48:09;;;;;;;12.97;9.40;;;8.70;98.50;;;;;;5033506;28;20234;-59